Weather at Kraków-Łęg Heliport

Public forecast

Using degrees Celsius for public forecast. Weather courtesy of forecast.io.

Closest aviation weather report (METAR) to Kraków-Łęg Heliport

Closest report is Kraków John Paul II International Airport, 8.8 nm (16.4 km) W.

2024/05/20 18:00 (retrieved 25 minutes ago)

EPKK 201800Z VRB02KT CAVOK 21/12 Q1012

Closest aviation forecast (TAF) to Kraków-Łęg Heliport

Closest forecast is Kraków John Paul II International Airport, 8.8 nm (16.4 km) W.

2024/05/20 18:37 (retrieved 0 seconds ago)

TAF EPKK 201730Z 2018/2118 VRB02KT CAVOK PROB30 2100/2103 2000 BR BECMG 2109/2111 10010KT TEMPO 2111/2117 SCT050CB PROB30 TEMPO 2111/2116 VRB15G25KT TSRA BKN040CB